Vg 117 Kungsvik — SBTH — position and weather

sailwx.info

Track history (hours):
 
Tides and Currents Weather Stations Pressure Air Temp Water Temp Dewpoint Dewpoint Depression Visibility Wind Speed Wind Dir Waves Ship Positions

Vg 117 Kungsvik

Last reported at 2015-Aug-02 01:28 UTC. Time now 2015-Aug-02 02:11 UTC.
Position N 57°04' E 012°16'.

Length 17 m.

Type: Fishing. MMSI: 266137000.

Date/timePositionNaut miles runAvg speedWind from/ knotsBaromVisibWave heightAir tempDewpointWater temp
2015-Aug-02 01:28N 57°04' E 012°16'0 0.0
2015-Aug-02 00:16N 57°04' E 012°16'0 0.0
2015-Aug-01 19:10N 57°04' E 012°16'0 0.0
2015-Aug-01 18:10N 57°04' E 012°16'0 0.0
2015-Aug-01 17:28N 57°04' E 012°16'0 0.0
2015-Aug-01 16:28N 57°04' E 012°16'0 0.0
2015-Aug-01 15:22N 57°04' E 012°16'0 0.0
2015-Aug-01 14:28N 57°04' E 012°16'0 0.0
2015-Aug-01 13:22N 57°04' E 012°16'0 0.0
2015-Aug-01 12:28N 57°04' E 012°16'0 0.0
2015-Aug-01 11:28N 57°04' E 012°16'0 0.0
2015-Aug-01 10:04N 57°04' E 012°16'0 0.0
2015-Aug-01 09:28N 57°04' E 012°16'0 0.0
2015-Aug-01 08:22N 57°04' E 012°16'0 0.0
2015-Aug-01 07:28N 57°04' E 012°16'0 0.0
2015-Aug-01 06:28N 57°04' E 012°16'0 0.0
2015-Aug-01 05:28N 57°04' E 012°16'0 0.0
2015-Aug-01 04:28N 57°04' E 012°16'0 0.0
2015-Aug-01 03:28N 57°04' E 012°16'0 0.0
2015-Aug-01 02:28N 57°04' E 012°16'0 0.0
2015-Aug-01 01:28N 57°04' E 012°16'0 0.0
2015-Aug-01 00:28N 57°04' E 012°16'0 0.0
2015-Jul-31 23:28N 57°04' E 012°16'0 0.0
2015-Jul-31 22:28N 57°04' E 012°16'0 0.0
2015-Jul-31 21:28N 57°04' E 012°16'0 0.0
2015-Jul-31 20:22N 57°04' E 012°16'0 0.0
2015-Jul-31 19:22N 57°04' E 012°16'0 0.0
2015-Jul-31 18:10N 57°04' E 012°16'0 0.0
2015-Jul-31 17:28N 57°04' E 012°16'0 0.0
2015-Jul-31 15:28N 57°04' E 012°16'0 0.0
2015-Jul-31 14:28N 57°04' E 012°16'0 0.0
2015-Jul-31 13:28N 57°04' E 012°16'0 0.0
2015-Jul-31 12:28N 57°04' E 012°16'0 0.0
2015-Jul-31 11:28N 57°04' E 012°16'0 0.0
2015-Jul-31 10:28N 57°04' E 012°16'0 0.0
2015-Jul-31 09:22N 57°04' E 012°16'0 0.0
2015-Jul-31 08:22N 57°04' E 012°16'0 0.0
2015-Jul-31 07:28N 57°04' E 012°16'0 0.0
2015-Jul-31 06:28N 57°04' E 012°16'9 0.8
2015-Jul-30 18:17N 57°03' E 011°59'4 5.9
2015-Jul-30 17:33N 57°03' E 012°07'5 5.0
2015-Jul-30 16:32N 57°04' E 012°16'0 0.0
2015-Jul-30 15:32N 57°04' E 012°16'0 0.0
2015-Jul-30 14:26N 57°04' E 012°16'0 0.0
2015-Jul-30 13:32N 57°04' E 012°16'0 0.0
2015-Jul-30 12:32N 57°04' E 012°16'0 0.0
2015-Jul-30 11:26N 57°04' E 012°16'0 0.0
2015-Jul-30 10:32N 57°04' E 012°16'0 0.0
2015-Jul-30 09:32N 57°04' E 012°16'0 0.0
2015-Jul-30 08:32N 57°04' E 012°16'0 0.0
2015-Jul-30 07:32N 57°04' E 012°16'0 0.0
2015-Jul-30 06:32N 57°04' E 012°16'5 5.4
2015-Jul-30 05:33N 57°03' E 012°07'8 0.9
2015-Jul-29 20:33N 57°02' E 011°52'3 2.4
2015-Jul-29 19:29N 57°03' E 011°56'2 2.4
2015-Jul-29 18:32N 57°03' E 012°00'6 5.9
2015-Jul-29 17:32N 57°03' E 012°11'3 2.8
2015-Jul-29 16:28N 57°04' E 012°16'0 0.0
2015-Jul-29 15:28N 57°04' E 012°16'0 0.0
2015-Jul-29 14:28N 57°04' E 012°16'0 0.0
2015-Jul-29 13:28N 57°04' E 012°16'0 0.0
2015-Jul-29 11:16N 57°04' E 012°16'0 0.0
2015-Jul-29 10:28N 57°04' E 012°16'0 0.0
2015-Jul-29 08:22N 57°04' E 012°16'0 0.0
2015-Jul-29 07:28N 57°04' E 012°16'0 0.0
2015-Jul-29 06:31N 57°04' E 012°16'7 7.0
2015-Jul-29 05:32N 56°58' E 012°10'7 7.1
2015-Jul-29 04:33N 56°52' E 012°03'2 1.8
2015-Jul-29 03:32N 56°50' E 012°02'2 2.5
2015-Jul-29 02:33N 56°48' E 011°59'3 1.5
2015-Jul-29 00:33N 56°45' E 011°59'3 3.4
2015-Jul-28 23:33N 56°49' E 011°59'1 0.7
2015-Jul-28 21:33N 56°48' E 011°57'3 2.4
2015-Jul-28 20:24N 56°50' E 011°59'2 2.5
2015-Jul-28 19:32N 56°52' E 012°02'3 2.6
2015-Jul-28 18:33N 56°53' E 012°06'6 6.3
2015-Jul-28 17:32N 56°59' E 012°11'6 2.9
2015-Jul-28 15:31N 57°04' E 012°16'0 0.0
2015-Jul-28 14:31N 57°04' E 012°16'0 0.0
2015-Jul-28 13:31N 57°04' E 012°16'0 0.0
2015-Jul-28 12:19N 57°04' E 012°16'0 0.0
2015-Jul-28 11:31N 57°04' E 012°16'0 0.0
2015-Jul-28 10:19N 57°04' E 012°16'0 0.0
2015-Jul-28 09:31N 57°04' E 012°16'0 0.0
2015-Jul-28 08:31N 57°04' E 012°16'0 0.0
2015-Jul-28 07:31N 57°04' E 012°16'0 0.5
2015-Jul-28 06:33N 57°03' E 012°16'7 7.0
2015-Jul-28 05:33N 56°57' E 012°09'7 7.0
2015-Jul-28 04:33N 56°52' E 012°01'2 2.0
2015-Jul-28 03:30N 56°50' E 011°59'4 0.6
2015-Jul-27 20:26N 56°46' E 011°58'2 2.4
2015-Jul-27 19:33N 56°47' E 012°00'3 2.8
2015-Jul-27 18:33N 56°50' E 012°02'7 6.7
2015-Jul-27 17:33N 56°56' E 012°08'7 6.8
2015-Jul-27 16:32N 57°02' E 012°14'2 2.2
2015-Jul-27 15:31N 57°04' E 012°16'0 0.0
2015-Jul-27 14:31N 57°04' E 012°16'0 0.0
2015-Jul-27 13:31N 57°04' E 012°16'0 0.0
2015-Jul-27 12:31N 57°04' E 012°16'0 0.0
2015-Jul-27 11:29N 57°04' E 012°16'0 0.0
2015-Jul-27 10:29N 57°04' E 012°16'0 0.0
2015-Jul-27 08:23N 57°04' E 012°16'0 0.0
2015-Jul-27 07:17N 57°04' E 012°16'0 0.0
2015-Jul-27 06:23N 57°04' E 012°16'0 0.0
2015-Jul-27 05:29N 57°04' E 012°16'0 0.0
2015-Jul-27 04:29N 57°04' E 012°16'0 0.0
2015-Jul-27 03:17N 57°04' E 012°16'0 0.0
2015-Jul-27 02:29N 57°04' E 012°16'0 0.0
2015-Jul-27 01:29N 57°04' E 012°16'0 0.0
2015-Jul-27 00:29N 57°04' E 012°16'0 0.0
2015-Jul-26 23:29N 57°04' E 012°16'0 0.0
2015-Jul-26 22:29N 57°04' E 012°16'0 0.0
2015-Jul-26 21:29N 57°04' E 012°16'0 0.0
2015-Jul-26 20:23N 57°04' E 012°16'0 0.0
2015-Jul-26 19:23N 57°04' E 012°16'0 0.0
2015-Jul-26 18:05N 57°04' E 012°16'0 0.0
2015-Jul-26 16:29N 57°04' E 012°16'0 0.0
2015-Jul-26 15:29N 57°04' E 012°16'0 0.0
2015-Jul-26 14:29N 57°04' E 012°16'0 0.0
2015-Jul-26 13:23N 57°04' E 012°16'0 0.0
2015-Jul-26 12:11N 57°04' E 012°16'0 0.0
2015-Jul-26 11:29N 57°04' E 012°16'0 0.0
2015-Jul-26 10:05N 57°04' E 012°16'0 0.0
2015-Jul-26 09:29N 57°04' E 012°16'0 0.0
2015-Jul-26 07:23N 57°04' E 012°16'0 0.0
2015-Jul-26 06:23N 57°04' E 012°16'0 0.0
2015-Jul-26 05:29N 57°04' E 012°16'0 0.0
2015-Jul-26 03:29N 57°04' E 012°16'0 0.0
2015-Jul-26 01:29N 57°04' E 012°16'0 0.0
2015-Jul-25 23:29N 57°04' E 012°16'0 0.0
2015-Jul-25 22:23N 57°04' E 012°16'0 0.0
2015-Jul-25 21:23N 57°04' E 012°16'0 0.0
2015-Jul-25 20:29N 57°04' E 012°16'0 0.0
2015-Jul-25 19:29N 57°04' E 012°16'0 0.0
2015-Jul-25 18:29N 57°04' E 012°16'0 0.0
2015-Jul-25 17:29N 57°04' E 012°16'0 0.0
2015-Jul-25 16:29N 57°04' E 012°16'0 0.0
2015-Jul-25 15:29N 57°04' E 012°16'0 0.0
2015-Jul-25 14:29N 57°04' E 012°16'0 0.0
2015-Jul-25 13:29N 57°04' E 012°16'0 0.0
2015-Jul-25 12:29N 57°04' E 012°16'0 0.0
2015-Jul-25 11:29N 57°04' E 012°16'0 0.0
2015-Jul-25 10:29N 57°04' E 012°16'0 0.0
2015-Jul-25 09:29N 57°04' E 012°16'0 0.0
2015-Jul-25 08:29N 57°04' E 012°16'0 0.0
2015-Jul-25 07:23N 57°04' E 012°16'1 1.3
2015-Jul-25 06:32N 57°03' E 012°15'8 7.8
2015-Jul-25 05:32N 56°55' E 012°10'7 7.4
2015-Jul-25 04:33N 56°49' E 012°04'5 2.6
2015-Jul-25 02:33N 56°44' E 012°01'3 2.5
2015-Jul-25 01:27N 56°43' E 011°57'23 2.5
2015-Jul-24 16:10N 57°04' E 012°16'0 0.0
2015-Jul-24 15:29N 57°04' E 012°16'0 0.0
2015-Jul-24 14:17N 57°04' E 012°16'0 0.0
2015-Jul-24 13:29N 57°04' E 012°16'0 0.0
2015-Jul-24 12:23N 57°04' E 012°16'0 0.0
2015-Jul-24 11:29N 57°04' E 012°16'0 0.0
2015-Jul-24 10:29N 57°04' E 012°16'0 0.0
2015-Jul-24 09:11N 57°04' E 012°16'0 0.0
2015-Jul-24 08:29N 57°04' E 012°16'0 0.0
2015-Jul-24 07:29N 57°04' E 012°16'0 0.0
2015-Jul-24 06:23N 57°04' E 012°16'0 0.0
2015-Jul-24 05:23N 57°04' E 012°16'0 0.0
2015-Jul-24 04:23N 57°04' E 012°16'0 0.0
2015-Jul-24 03:23N 57°04' E 012°16'0 0.0
2015-Jul-24 02:11N 57°04' E 012°16'0 0.0
2015-Jul-24 01:29N 57°04' E 012°16'0 0.0
2015-Jul-23 23:17N 57°04' E 012°16'0 0.0
2015-Jul-23 22:23N 57°04' E 012°16'0 0.0
2015-Jul-23 21:29N 57°04' E 012°16'0 0.0
2015-Jul-23 20:05N 57°04' E 012°16'0 0.0
2015-Jul-23 18:29N 57°04' E 012°16'0 0.0
2015-Jul-23 17:29N 57°04' E 012°16'0 0.0
2015-Jul-23 16:29N 57°04' E 012°16'0 0.0
2015-Jul-23 15:29N 57°04' E 012°16'0 0.0
2015-Jul-23 14:17N 57°04' E 012°16'0 0.0
2015-Jul-23 13:23N 57°04' E 012°16'0 0.0
2015-Jul-23 12:29N 57°04' E 012°16'0 0.0
2015-Jul-23 11:17N 57°04' E 012°16'0 0.0
2015-Jul-23 10:29N 57°04' E 012°16'0 0.0
2015-Jul-23 08:29N 57°04' E 012°16'0 0.0
2015-Jul-23 07:17N 57°04' E 012°16'0 0.0
2015-Jul-23 06:29N 57°04' E 012°16'0 0.3
2015-Jul-23 05:28N 57°03' E 012°16'4 4.1
2015-Jul-23 04:33N 57°02' E 012°10'2 1.4
2015-Jul-23 03:29N 57°02' E 012°07'2 2.5
2015-Jul-23 02:33N 57°05' E 012°07'  
Track history (hours):
 
Tides and Currents Weather Stations Pressure Air Temp Water Temp Dewpoint Dewpoint Depression Visibility Wind Speed Wind Dir Waves Ship Positions

Vg 117 Kungsvik

Last reported at 2015-Aug-02 01:28 UTC. Time now 2015-Aug-02 02:11 UTC.
Position N 57°04' E 012°16'.

Length 17 m.

Type: Fishing. MMSI: 266137000.

Date/timePositionNaut miles runAvg speedWind from/ knotsBaromVisibWave heightAir tempDewpointWater temp
2015-Aug-02 01:28N 57°04' E 012°16'0 0.0
2015-Aug-02 00:16N 57°04' E 012°16'0 0.0
2015-Aug-01 19:10N 57°04' E 012°16'0 0.0
2015-Aug-01 18:10N 57°04' E 012°16'0 0.0
2015-Aug-01 17:28N 57°04' E 012°16'0 0.0
2015-Aug-01 16:28N 57°04' E 012°16'0 0.0
2015-Aug-01 15:22N 57°04' E 012°16'0 0.0
2015-Aug-01 14:28N 57°04' E 012°16'0 0.0
2015-Aug-01 13:22N 57°04' E 012°16'0 0.0
2015-Aug-01 12:28N 57°04' E 012°16'0 0.0
2015-Aug-01 11:28N 57°04' E 012°16'0 0.0
2015-Aug-01 10:04N 57°04' E 012°16'0 0.0
2015-Aug-01 09:28N 57°04' E 012°16'0 0.0
2015-Aug-01 08:22N 57°04' E 012°16'0 0.0
2015-Aug-01 07:28N 57°04' E 012°16'0 0.0
2015-Aug-01 06:28N 57°04' E 012°16'0 0.0
2015-Aug-01 05:28N 57°04' E 012°16'0 0.0
2015-Aug-01 04:28N 57°04' E 012°16'0 0.0
2015-Aug-01 03:28N 57°04' E 012°16'0 0.0
2015-Aug-01 02:28N 57°04' E 012°16'0 0.0
2015-Aug-01 01:28N 57°04' E 012°16'0 0.0
2015-Aug-01 00:28N 57°04' E 012°16'0 0.0
2015-Jul-31 23:28N 57°04' E 012°16'0 0.0
2015-Jul-31 22:28N 57°04' E 012°16'0 0.0
2015-Jul-31 21:28N 57°04' E 012°16'0 0.0
2015-Jul-31 20:22N 57°04' E 012°16'0 0.0
2015-Jul-31 19:22N 57°04' E 012°16'0 0.0
2015-Jul-31 18:10N 57°04' E 012°16'0 0.0
2015-Jul-31 17:28N 57°04' E 012°16'0 0.0
2015-Jul-31 15:28N 57°04' E 012°16'0 0.0
2015-Jul-31 14:28N 57°04' E 012°16'0 0.0
2015-Jul-31 13:28N 57°04' E 012°16'0 0.0
2015-Jul-31 12:28N 57°04' E 012°16'0 0.0
2015-Jul-31 11:28N 57°04' E 012°16'0 0.0
2015-Jul-31 10:28N 57°04' E 012°16'0 0.0
2015-Jul-31 09:22N 57°04' E 012°16'0 0.0
2015-Jul-31 08:22N 57°04' E 012°16'0 0.0
2015-Jul-31 07:28N 57°04' E 012°16'0 0.0
2015-Jul-31 06:28N 57°04' E 012°16'9 0.8
2015-Jul-30 18:17N 57°03' E 011°59'4 5.9
2015-Jul-30 17:33N 57°03' E 012°07'5 5.0
2015-Jul-30 16:32N 57°04' E 012°16'0 0.0
2015-Jul-30 15:32N 57°04' E 012°16'0 0.0
2015-Jul-30 14:26N 57°04' E 012°16'0 0.0
2015-Jul-30 13:32N 57°04' E 012°16'0 0.0
2015-Jul-30 12:32N 57°04' E 012°16'0 0.0
2015-Jul-30 11:26N 57°04' E 012°16'0 0.0
2015-Jul-30 10:32N 57°04' E 012°16'0 0.0
2015-Jul-30 09:32N 57°04' E 012°16'0 0.0
2015-Jul-30 08:32N 57°04' E 012°16'0 0.0
2015-Jul-30 07:32N 57°04' E 012°16'0 0.0
2015-Jul-30 06:32N 57°04' E 012°16'5 5.4
2015-Jul-30 05:33N 57°03' E 012°07'8 0.9
2015-Jul-29 20:33N 57°02' E 011°52'3 2.4
2015-Jul-29 19:29N 57°03' E 011°56'2 2.4
2015-Jul-29 18:32N 57°03' E 012°00'6 5.9
2015-Jul-29 17:32N 57°03' E 012°11'3 2.8
2015-Jul-29 16:28N 57°04' E 012°16'0 0.0
2015-Jul-29 15:28N 57°04' E 012°16'0 0.0
2015-Jul-29 14:28N 57°04' E 012°16'0 0.0
2015-Jul-29 13:28N 57°04' E 012°16'0 0.0
2015-Jul-29 11:16N 57°04' E 012°16'0 0.0
2015-Jul-29 10:28N 57°04' E 012°16'0 0.0
2015-Jul-29 08:22N 57°04' E 012°16'0 0.0
2015-Jul-29 07:28N 57°04' E 012°16'0 0.0
2015-Jul-29 06:31N 57°04' E 012°16'7 7.0
2015-Jul-29 05:32N 56°58' E 012°10'7 7.1
2015-Jul-29 04:33N 56°52' E 012°03'2 1.8
2015-Jul-29 03:32N 56°50' E 012°02'2 2.5
2015-Jul-29 02:33N 56°48' E 011°59'3 1.5
2015-Jul-29 00:33N 56°45' E 011°59'3 3.4
2015-Jul-28 23:33N 56°49' E 011°59'1 0.7
2015-Jul-28 21:33N 56°48' E 011°57'3 2.4
2015-Jul-28 20:24N 56°50' E 011°59'2 2.5
2015-Jul-28 19:32N 56°52' E 012°02'3 2.6
2015-Jul-28 18:33N 56°53' E 012°06'6 6.3
2015-Jul-28 17:32N 56°59' E 012°11'6 2.9
2015-Jul-28 15:31N 57°04' E 012°16'0 0.0
2015-Jul-28 14:31N 57°04' E 012°16'0 0.0
2015-Jul-28 13:31N 57°04' E 012°16'0 0.0
2015-Jul-28 12:19N 57°04' E 012°16'0 0.0
2015-Jul-28 11:31N 57°04' E 012°16'0 0.0
2015-Jul-28 10:19N 57°04' E 012°16'0 0.0
2015-Jul-28 09:31N 57°04' E 012°16'0 0.0
2015-Jul-28 08:31N 57°04' E 012°16'0 0.0
2015-Jul-28 07:31N 57°04' E 012°16'0 0.5
2015-Jul-28 06:33N 57°03' E 012°16'7 7.0
2015-Jul-28 05:33N 56°57' E 012°09'7 7.0
2015-Jul-28 04:33N 56°52' E 012°01'2 2.0
2015-Jul-28 03:30N 56°50' E 011°59'4 0.6
2015-Jul-27 20:26N 56°46' E 011°58'2 2.4
2015-Jul-27 19:33N 56°47' E 012°00'3 2.8
2015-Jul-27 18:33N 56°50' E 012°02'7 6.7
2015-Jul-27 17:33N 56°56' E 012°08'7 6.8
2015-Jul-27 16:32N 57°02' E 012°14'2 2.2
2015-Jul-27 15:31N 57°04' E 012°16'0 0.0
2015-Jul-27 14:31N 57°04' E 012°16'0 0.0
2015-Jul-27 13:31N 57°04' E 012°16'0 0.0
2015-Jul-27 12:31N 57°04' E 012°16'0 0.0
2015-Jul-27 11:29N 57°04' E 012°16'0 0.0
2015-Jul-27 10:29N 57°04' E 012°16'0 0.0
2015-Jul-27 08:23N 57°04' E 012°16'0 0.0
2015-Jul-27 07:17N 57°04' E 012°16'0 0.0
2015-Jul-27 06:23N 57°04' E 012°16'0 0.0
2015-Jul-27 05:29N 57°04' E 012°16'0 0.0
2015-Jul-27 04:29N 57°04' E 012°16'0 0.0
2015-Jul-27 03:17N 57°04' E 012°16'0 0.0
2015-Jul-27 02:29N 57°04' E 012°16'0 0.0
2015-Jul-27 01:29N 57°04' E 012°16'0 0.0
2015-Jul-27 00:29N 57°04' E 012°16'0 0.0
2015-Jul-26 23:29N 57°04' E 012°16'0 0.0
2015-Jul-26 22:29N 57°04' E 012°16'0 0.0
2015-Jul-26 21:29N 57°04' E 012°16'0 0.0
2015-Jul-26 20:23N 57°04' E 012°16'0 0.0
2015-Jul-26 19:23N 57°04' E 012°16'0 0.0
2015-Jul-26 18:05N 57°04' E 012°16'0 0.0
2015-Jul-26 16:29N 57°04' E 012°16'0 0.0
2015-Jul-26 15:29N 57°04' E 012°16'0 0.0
2015-Jul-26 14:29N 57°04' E 012°16'0 0.0
2015-Jul-26 13:23N 57°04' E 012°16'0 0.0
2015-Jul-26 12:11N 57°04' E 012°16'0 0.0
2015-Jul-26 11:29N 57°04' E 012°16'0 0.0
2015-Jul-26 10:05N 57°04' E 012°16'0 0.0
2015-Jul-26 09:29N 57°04' E 012°16'0 0.0
2015-Jul-26 07:23N 57°04' E 012°16'0 0.0
2015-Jul-26 06:23N 57°04' E 012°16'0 0.0
2015-Jul-26 05:29N 57°04' E 012°16'0 0.0
2015-Jul-26 03:29N 57°04' E 012°16'0 0.0
2015-Jul-26 01:29N 57°04' E 012°16'0 0.0
2015-Jul-25 23:29N 57°04' E 012°16'0 0.0
2015-Jul-25 22:23N 57°04' E 012°16'0 0.0
2015-Jul-25 21:23N 57°04' E 012°16'0 0.0
2015-Jul-25 20:29N 57°04' E 012°16'0 0.0
2015-Jul-25 19:29N 57°04' E 012°16'0 0.0
2015-Jul-25 18:29N 57°04' E 012°16'0 0.0
2015-Jul-25 17:29N 57°04' E 012°16'0 0.0
2015-Jul-25 16:29N 57°04' E 012°16'0 0.0
2015-Jul-25 15:29N 57°04' E 012°16'0 0.0
2015-Jul-25 14:29N 57°04' E 012°16'0 0.0
2015-Jul-25 13:29N 57°04' E 012°16'0 0.0
2015-Jul-25 12:29N 57°04' E 012°16'0 0.0
2015-Jul-25 11:29N 57°04' E 012°16'0 0.0
2015-Jul-25 10:29N 57°04' E 012°16'0 0.0
2015-Jul-25 09:29N 57°04' E 012°16'0 0.0
2015-Jul-25 08:29N 57°04' E 012°16'0 0.0
2015-Jul-25 07:23N 57°04' E 012°16'1 1.3
2015-Jul-25 06:32N 57°03' E 012°15'8 7.8
2015-Jul-25 05:32N 56°55' E 012°10'7 7.4
2015-Jul-25 04:33N 56°49' E 012°04'5 2.6
2015-Jul-25 02:33N 56°44' E 012°01'3 2.5
2015-Jul-25 01:27N 56°43' E 011°57'23 2.5
2015-Jul-24 16:10N 57°04' E 012°16'0 0.0
2015-Jul-24 15:29N 57°04' E 012°16'0 0.0
2015-Jul-24 14:17N 57°04' E 012°16'0 0.0
2015-Jul-24 13:29N 57°04' E 012°16'0 0.0
2015-Jul-24 12:23N 57°04' E 012°16'0 0.0
2015-Jul-24 11:29N 57°04' E 012°16'0 0.0
2015-Jul-24 10:29N 57°04' E 012°16'0 0.0
2015-Jul-24 09:11N 57°04' E 012°16'0 0.0
2015-Jul-24 08:29N 57°04' E 012°16'0 0.0
2015-Jul-24 07:29N 57°04' E 012°16'0 0.0
2015-Jul-24 06:23N 57°04' E 012°16'0 0.0
2015-Jul-24 05:23N 57°04' E 012°16'0 0.0
2015-Jul-24 04:23N 57°04' E 012°16'0 0.0
2015-Jul-24 03:23N 57°04' E 012°16'0 0.0
2015-Jul-24 02:11N 57°04' E 012°16'0 0.0
2015-Jul-24 01:29N 57°04' E 012°16'0 0.0
2015-Jul-23 23:17N 57°04' E 012°16'0 0.0
2015-Jul-23 22:23N 57°04' E 012°16'0 0.0
2015-Jul-23 21:29N 57°04' E 012°16'0 0.0
2015-Jul-23 20:05N 57°04' E 012°16'0 0.0
2015-Jul-23 18:29N 57°04' E 012°16'0 0.0
2015-Jul-23 17:29N 57°04' E 012°16'0 0.0
2015-Jul-23 16:29N 57°04' E 012°16'0 0.0
2015-Jul-23 15:29N 57°04' E 012°16'0 0.0
2015-Jul-23 14:17N 57°04' E 012°16'0 0.0
2015-Jul-23 13:23N 57°04' E 012°16'0 0.0
2015-Jul-23 12:29N 57°04' E 012°16'0 0.0
2015-Jul-23 11:17N 57°04' E 012°16'0 0.0
2015-Jul-23 10:29N 57°04' E 012°16'0 0.0
2015-Jul-23 08:29N 57°04' E 012°16'0 0.0
2015-Jul-23 07:17N 57°04' E 012°16'0 0.0
2015-Jul-23 06:29N 57°04' E 012°16'0 0.3
2015-Jul-23 05:28N 57°03' E 012°16'4 4.1
2015-Jul-23 04:33N 57°02' E 012°10'2 1.4
2015-Jul-23 03:29N 57°02' E 012°07'2 2.5
2015-Jul-23 02:33N 57°05' E 012°07'  

Dump ship's entire track history